Time;durP1;ratioP1;P1;durP2;ratioP2;P2;SDS_P1;SDS_P2;PMS_P1;PMS_P2;Temp;Humidity;BMP_temperature;BMP_pressure;BME280_temperature;BME280_humidity;BME280_pressure;Samples;Min_cycle;Max_cycle;Signal;HPM_P1;HPM_P2
2023/02/16 00:01:55;;;;;;;85.27;48.90;;;;;;;4.50;58.58;101100.25;5044310;27;96830;-89
2023/02/16 00:04:24;;;;;;;88.23;49.80;;;;;;;4.51;58.29;101113.28;5036613;27;96915;-89
2023/02/16 00:06:50;;;;;;;89.57;50.43;;;;;;;4.35;58.28;101079.41;5035682;27;101794;-89
2023/02/16 00:09:16;;;;;;;91.03;51.97;;;;;;;4.48;58.25;101099.38;5042337;27;100245;-89
2023/02/16 00:14:27;;;;;;;86.73;48.53;;;;;;;4.44;58.56;101106.28;5052986;27;96963;-88
2023/02/16 00:16:53;;;;;;;93.30;50.03;;;;;;;4.37;58.16;101085.50;5047438;27;101696;-88
2023/02/16 00:19:20;;;;;;;89.40;48.23;;;;;;;4.40;58.32;101098.50;5048883;27;100634;-88
2023/02/16 00:21:48;;;;;;;87.87;49.40;;;;;;;4.31;58.32;101092.41;5052935;27;96660;-88
2023/02/16 00:24:14;;;;;;;91.50;50.33;;;;;;;4.29;58.41;101090.66;5026050;27;97294;-89
2023/02/16 00:26:41;;;;;;;86.47;48.30;;;;;;;4.40;58.48;101103.69;5058221;27;97274;-88
2023/02/16 00:29:12;;;;;;;86.93;48.33;;;;;;;4.25;58.20;101081.97;5064415;27;98528;-90
2023/02/16 00:31:39;;;;;;;86.77;49.00;;;;;;;4.38;58.11;101097.63;5037499;27;96757;-89
2023/02/16 00:34:25;;;;;;;88.53;47.90;;;;;;;4.35;58.22;101098.47;5030565;27;97172;-90
2023/02/16 00:36:52;;;;;;;80.23;46.53;;;;;;;4.35;58.15;101100.19;5053870;27;101791;-89
2023/02/16 00:39:23;;;;;;;85.77;48.63;;;;;;;4.35;58.41;101110.59;5044587;27;100956;-88
2023/02/16 00:41:49;;;;;;;85.37;46.57;;;;;;;4.30;58.58;101097.56;5023851;27;96884;-88
2023/02/16 00:44:17;;;;;;;84.60;47.07;;;;;;;4.14;58.00;101073.25;5037667;27;97062;-88
2023/02/16 00:46:44;;;;;;;89.87;47.73;;;;;;;4.28;58.32;101105.38;5035044;27;101113;-89
2023/02/16 00:49:13;;;;;;;85.53;46.63;;;;;;;4.29;58.21;101103.66;5038593;27;100060;-89
2023/02/16 00:51:39;;;;;;;82.60;45.93;;;;;;;4.26;58.49;101109.69;5035223;27;96827;-89
2023/02/16 00:54:05;;;;;;;88.37;47.50;;;;;;;4.26;58.44;101106.22;5052271;27;97069;-89
2023/02/16 00:56:32;;;;;;;86.50;47.00;;;;;;;4.13;58.44;101083.63;5057500;27;97163;-89
2023/02/16 00:58:58;;;;;;;87.73;48.27;;;;;;;4.22;58.36;101104.50;5043310;27;101627;-89
2023/02/16 01:01:25;;;;;;;88.03;46.07;;;;;;;4.18;58.13;101089.72;5024413;27;96756;-89
2023/02/16 01:03:50;;;;;;;90.03;49.63;;;;;;;4.20;58.25;101098.41;5032576;27;97347;-89
2023/02/16 01:11:55;;;;;;;89.77;48.30;;;;;;;4.15;58.12;101082.78;5050977;27;96955;-89
2023/02/16 01:14:21;;;;;;;90.63;48.30;;;;;;;4.06;58.30;101077.56;5056480;27;96962;-89
2023/02/16 01:16:47;;;;;;;87.33;47.63;;;;;;;4.14;58.35;101090.59;5038978;27;98506;-89
2023/02/16 01:19:13;;;;;;;86.27;46.67;;;;;;;4.10;58.43;101087.09;5039519;27;101169;-89
2023/02/16 01:21:38;;;;;;;81.33;44.83;;;;;;;3.96;58.14;101065.41;5033729;27;98298;-89
2023/02/16 01:24:04;;;;;;;87.53;48.90;;;;;;;4.06;58.56;101090.53;5038367;27;96680;-90
2023/02/16 01:26:32;;;;;;;88.20;47.03;;;;;;;4.02;58.30;101092.25;5034952;27;101449;-89
2023/02/16 01:28:57;;;;;;;85.37;46.53;;;;;;;3.87;58.30;101068.81;5036077;27;99978;-88
2023/02/16 01:31:23;;;;;;;81.90;46.30;;;;;;;3.97;58.30;101083.56;5050357;27;96907;-89
2023/02/16 01:33:49;;;;;;;85.13;45.77;;;;;;;3.86;58.51;101067.91;5037522;27;97316;-89
2023/02/16 01:36:47;;;;;;;84.03;45.90;;;;;;;3.96;58.36;101076.66;5054983;27;101898;-89
2023/02/16 01:39:16;;;;;;;81.73;45.80;;;;;;;4.00;58.34;101081.00;5001489;27;101307;-88
2023/02/16 01:42:12;;;;;;;84.40;45.30;;;;;;;3.96;58.11;101073.19;5043275;27;96706;-89
2023/02/16 01:44:43;;;;;;;81.57;44.73;;;;;;;3.91;58.82;101073.16;5052328;27;96922;-89
2023/02/16 01:47:30;;;;;;;84.20;46.23;;;;;;;3.91;58.62;101069.69;5039834;27;100427;-89
2023/02/16 01:49:56;;;;;;;86.73;46.43;;;;;;;3.80;58.66;101038.47;5074579;27;99061;-88
2023/02/16 01:52:35;;;;;;;84.20;48.27;;;;;;;3.92;58.29;101059.28;5032506;27;97242;-89
2023/02/16 01:55:34;;;;;;;90.47;46.93;;;;;;;3.85;58.66;101048.00;5060882;27;96921;-89
2023/02/16 01:58:30;;;;;;;79.37;43.87;;;;;;;3.88;58.97;101046.31;5050886;27;100595;-88
2023/02/16 02:00:58;;;;;;;85.23;45.57;;;;;;;3.75;58.53;101034.97;5068845;27;100038;-90
2023/02/16 02:06:21;;;;;;;93.27;49.83;;;;;;;3.74;58.65;101035.84;5070583;27;97269;-89
2023/02/16 02:09:10;;;;;;;92.10;49.23;;;;;;;3.79;59.21;101049.72;5055735;27;100324;-89
2023/02/16 02:11:41;;;;;;;83.73;48.80;;;;;;;3.78;58.86;101047.97;5070851;27;100517;-88
2023/02/16 02:14:07;;;;;;;;;;;;;;;3.75;58.59;101046.25;5055669;27;97130;-89
2023/02/16 02:16:34;;;;;;;90.23;47.37;;;;;;;3.75;58.88;101047.94;5080770;27;96638;-88
2023/02/16 02:18:59;;;;;;;86.07;47.27;;;;;;;3.79;58.73;101044.53;5036735;27;100604;-89
2023/02/16 02:25:13;;;;;;;96.27;47.57;;;;;;;3.74;59.04;101039.28;5055491;27;96915;-89
2023/02/16 02:27:47;;;;;;;86.60;46.27;;;;;;;3.66;59.11;101017.59;5035342;27;97040;-88
2023/02/16 02:30:26;;;;;;;93.77;49.80;;;;;;;3.71;59.17;101033.22;5042882;27;101348;-89
2023/02/16 02:32:53;;;;;;;89.37;47.53;;;;;;;3.61;59.02;101014.13;5062124;27;101907;-88
2023/02/16 02:35:21;;;;;;;92.77;48.60;;;;;;;3.63;58.98;101004.59;5078549;27;96654;-90
2023/02/16 02:38:03;;;;;;;96.67;50.60;;;;;;;3.73;59.39;101023.72;5066708;27;97248;-90
2023/02/16 02:40:46;;;;;;;88.38;49.38;;;;;;;3.74;59.42;101030.63;5064756;27;100660;-89
2023/02/16 02:43:20;;;;;;;92.37;48.80;;;;;;;3.57;59.20;101009.75;5049815;27;100759;-89
2023/02/16 02:45:58;;;;;;;87.90;48.33;;;;;;;3.39;59.12;100981.97;5055376;27;96737;-89
2023/02/16 02:48:30;;;;;;;89.50;46.17;;;;;;;3.67;58.92;101026.28;5044092;27;97174;-88
2023/02/16 03:02:16;;;;;;;97.60;49.47;;;;;;;3.55;58.96;101030.53;5053645;27;101399;-88
2023/02/16 03:04:43;;;;;;;84.37;47.23;;;;;;;3.48;58.93;101020.09;5035942;27;101384;-89
2023/02/16 03:07:13;;;;;;;89.20;47.67;;;;;;;3.53;58.83;101021.00;5022131;27;96766;-88
2023/02/16 03:09:39;;;;;;;90.77;48.20;;;;;;;3.39;58.80;101003.59;5054338;27;96916;-89
2023/02/16 03:14:53;;;;;;;86.13;47.30;;;;;;;3.50;58.99;101015.78;5051944;27;101430;-87
2023/02/16 03:31:17;;;;;;;85.53;44.90;;;;;;;3.42;59.07;101007.09;5049578;27;96834;-89
2023/02/16 03:33:44;;;;;;;90.70;48.33;;;;;;;3.36;58.77;100998.41;5050856;27;98105;-89
2023/02/16 03:36:10;;;;;;;90.57;48.23;;;;;;;3.40;58.96;101012.25;5037295;27;101362;-89
2023/02/16 03:38:38;;;;;;;91.23;47.93;;;;;;;3.36;59.16;101011.38;5049033;27;97110;-88
2023/02/16 03:41:04;;;;;;;96.47;48.13;;;;;;;3.27;58.98;100994.88;5036368;27;97050;-89
2023/02/16 03:43:30;;;;;;;86.63;46.63;;;;;;;3.21;59.18;100997.44;5034772;27;100227;-89
2023/02/16 03:45:56;;;;;;;83.27;45.97;;;;;;;3.35;59.36;101025.22;5023325;27;101612;-89
2023/02/16 03:48:22;;;;;;;87.40;48.13;;;;;;;3.30;59.43;101013.06;5035010;27;97251;-90
2023/02/16 03:50:47;;;;;;;91.80;48.43;;;;;;;3.29;59.33;101013.94;5033608;27;97092;-89
2023/02/16 03:53:13;;;;;;;82.93;46.00;;;;;;;3.30;59.36;101021.72;5034414;27;101975;-89
2023/02/16 03:55:44;;;;;;;93.30;48.03;;;;;;;3.17;59.06;101001.72;5056894;27;97909;-89
2023/02/16 03:58:12;;;;;;;95.90;48.40;;;;;;;3.27;59.25;101015.66;5035157;27;96871;-90
2023/02/16 04:00:39;;;;;;;92.77;50.20;;;;;;;3.23;59.20;101011.28;5035453;27;96863;-89
2023/02/16 04:03:05;;;;;;;94.67;49.73;;;;;;;3.22;59.20;101004.34;5034358;27;101611;-89
2023/02/16 04:05:32;;;;;;;99.67;50.47;;;;;;;3.26;59.40;101014.78;5037378;27;101084;-90
2023/02/16 04:07:57;;;;;;;86.10;47.67;;;;;;;3.29;59.41;101026.91;5060010;27;97305;-90
2023/02/16 04:10:23;;;;;;;92.83;50.13;;;;;;;3.20;59.46;101017.34;5048106;27;97176;-89
2023/02/16 04:12:49;;;;;;;86.67;48.23;;;;;;;3.12;59.38;100995.66;5035575;27;100223;-90
2023/02/16 04:15:20;;;;;;;90.63;49.37;;;;;;;3.26;59.56;101017.38;5034433;27;100159;-89
2023/02/16 04:17:46;;;;;;;90.13;48.57;;;;;;;3.27;59.47;101024.28;5036388;27;97086;-89
2023/02/16 04:20:16;;;;;;;95.90;50.13;;;;;;;3.19;59.79;101020.78;5035729;27;96887;-89
2023/02/16 04:22:42;;;;;;;94.37;48.60;;;;;;;3.26;59.98;101013.88;5024857;27;101236;-89
2023/02/16 04:25:08;;;;;;;100.37;51.13;;;;;;;3.26;59.79;101009.59;5047850;27;101666;-90
2023/02/16 04:27:35;;;;;;;88.47;46.20;;;;;;;3.20;59.38;101001.78;5033937;27;97148;-90
2023/02/16 04:30:00;;;;;;;94.43;49.47;;;;;;;3.20;59.73;101006.06;5020509;27;96715;-88
2023/02/16 04:32:26;;;;;;;96.00;51.17;;;;;;;3.21;59.37;101016.47;4987719;28;100124;-89
2023/02/16 04:34:52;;;;;;;85.93;48.07;;;;;;;3.22;59.37;101017.34;4993741;27;101199;-89
2023/02/16 04:37:17;;;;;;;90.97;49.87;;;;;;;3.19;59.49;101013.00;4996602;27;97384;-90
2023/02/16 04:39:43;;;;;;;91.57;48.17;;;;;;;3.18;59.41;101008.66;5025182;27;96933;-89
2023/02/16 04:42:09;;;;;;;91.47;46.93;;;;;;;3.06;59.37;100990.44;5003485;27;100072;-89
2023/02/16 04:44:34;;;;;;;89.30;47.50;;;;;;;3.15;59.85;101006.91;4999615;27;101919;-89
2023/02/16 04:47:00;;;;;;;96.87;49.80;;;;;;;3.15;59.96;101006.91;4992320;27;97062;-89
2023/02/16 04:49:26;;;;;;;84.57;46.77;;;;;;;3.11;59.73;101007.75;5015036;27;97163;-89
2023/02/16 04:51:52;;;;;;;95.73;49.17;;;;;;;3.11;59.71;101009.47;5030299;27;97414;-89
2023/02/16 04:54:18;;;;;;;98.03;50.63;;;;;;;2.89;59.87;100972.13;5015223;27;99926;-89
2023/02/16 04:56:45;;;;;;;98.63;49.83;;;;;;;3.11;59.77;101002.56;4996522;27;97257;-89
2023/02/16 04:59:11;;;;;;;95.13;48.97;;;;;;;3.06;59.34;100999.06;4998715;27;97141;-90
2023/02/16 05:01:36;;;;;;;98.17;50.43;;;;;;;3.04;59.69;100994.72;5016648;27;101267;-89
2023/02/16 05:04:02;;;;;;;90.53;48.13;;;;;;;3.08;59.54;100999.94;5007135;27;101287;-89
2023/02/16 05:06:28;;;;;;;91.77;48.73;;;;;;;3.07;59.73;101002.53;5029138;27;97364;-90
2023/02/16 05:08:53;;;;;;;90.23;47.87;;;;;;;3.04;59.66;100998.19;5008753;27;97232;-89
2023/02/16 05:16:47;;;;;;;94.37;49.17;;;;;;;3.06;59.62;101003.41;5014793;27;96725;-89
2023/02/16 05:19:13;;;;;;;92.17;47.73;;;;;;;3.02;59.77;100999.03;5021058;27;96882;-88
2023/02/16 05:21:39;;;;;;;87.60;45.70;;;;;;;3.01;59.73;100995.56;5005821;28;98416;-89
2023/02/16 05:24:07;;;;;;;95.17;49.50;;;;;;;3.05;59.74;100999.03;5013601;27;100743;-89
2023/02/16 05:26:33;;;;;;;97.10;48.83;;;;;;;2.98;59.75;100992.94;5037113;27;97186;-89
2023/02/16 05:28:59;;;;;;;91.57;47.87;;;;;;;3.03;60.00;100991.28;5023483;27;97183;-90
2023/02/16 05:31:26;;;;;;;90.77;47.33;;;;;;;3.02;59.92;100992.09;5036820;27;100260;-90
2023/02/16 05:33:52;;;;;;;96.37;49.37;;;;;;;2.99;60.23;100992.09;5049941;27;100372;-91
2023/02/16 05:36:18;;;;;;;88.80;47.83;;;;;;;3.02;59.57;101001.63;5040158;27;96784;-89
2023/02/16 05:38:44;;;;;;;92.60;49.00;;;;;;;3.05;60.07;101001.63;5041582;27;96901;-89
2023/02/16 05:41:10;;;;;;;92.33;48.13;;;;;;;3.06;60.06;100995.63;5033708;27;101351;-89
2023/02/16 05:43:35;;;;;;;91.83;47.97;;;;;;;2.95;60.18;100988.59;5046504;27;101495;-90
2023/02/16 05:46:08;;;;;;;100.03;49.77;;;;;;;3.03;60.15;100996.44;5033888;27;96734;-89
2023/02/16 05:48:33;;;;;;;99.93;50.57;;;;;;;3.03;59.80;100996.44;5056900;27;97886;-89
2023/02/16 05:50:59;;;;;;;110.90;53.03;;;;;;;3.00;60.14;100996.44;5036675;27;100298;-89
2023/02/16 05:53:25;;;;;;;115.53;56.97;;;;;;;3.04;59.90;101013.75;5053361;27;101372;-89
2023/02/16 05:55:50;;;;;;;116.40;55.30;;;;;;;3.06;59.86;101006.84;5048267;27;97086;-90
2023/02/16 05:58:16;;;;;;;111.97;53.50;;;;;;;3.07;59.64;101021.56;5037990;27;97034;-90
2023/02/16 06:00:42;;;;;;;113.93;54.37;;;;;;;2.98;59.97;101003.31;5044234;27;100454;-90
2023/02/16 06:03:07;;;;;;;107.90;50.80;;;;;;;2.85;59.76;100986.81;5056724;27;100023;-90
2023/02/16 06:05:33;;;;;;;99.90;50.67;;;;;;;3.08;59.97;101018.09;5048318;27;97088;-89
2023/02/16 06:07:59;;;;;;;104.70;52.07;;;;;;;3.07;59.76;101013.75;5052754;27;96814;-89
2023/02/16 06:10:25;;;;;;;95.63;50.70;;;;;;;2.91;59.86;100984.25;5025537;27;100204;-89
2023/02/16 06:12:51;;;;;;;104.47;53.43;;;;;;;3.07;60.14;101018.94;5031867;27;99682;-89
2023/02/16 06:15:17;;;;;;;106.57;53.33;;;;;;;3.02;59.93;101012.00;5050413;27;96920;-90
2023/02/16 06:17:43;;;;;;;111.23;55.17;;;;;;;3.04;60.07;101020.66;5055601;27;96782;-89
2023/02/16 06:20:09;;;;;;;99.90;51.00;;;;;;;3.09;59.82;101030.22;5044280;27;99830;-89
2023/02/16 06:22:35;;;;;;;98.37;50.30;;;;;;;3.07;59.60;101020.69;5045839;27;100779;-89
2023/02/16 06:25:01;;;;;;;108.43;51.87;;;;;;;3.12;60.13;101029.38;5038183;27;96774;-89
2023/02/16 06:27:27;;;;;;;98.33;50.10;;;;;;;3.14;60.01;101027.66;5028044;28;96850;-90
2023/02/16 06:29:53;;;;;;;97.03;48.47;;;;;;;3.14;60.16;101031.13;5000350;27;101091;-89
2023/02/16 06:32:19;;;;;;;93.77;49.30;;;;;;;3.10;59.83;101012.94;4998976;28;100401;-89
2023/02/16 06:34:45;;;;;;;91.00;47.70;;;;;;;3.18;60.23;101019.03;4992459;27;97399;-89
2023/02/16 06:37:10;;;;;;;97.57;49.83;;;;;;;3.21;60.07;101026.00;5021028;27;97111;-90
2023/02/16 06:39:36;;;;;;;95.20;49.33;;;;;;;3.16;59.85;101007.78;5016701;27;101533;-89
2023/02/16 06:42:02;;;;;;;97.70;52.53;;;;;;;3.35;59.98;101029.56;5000764;27;101705;-91
2023/02/16 06:44:28;;;;;;;95.30;49.77;;;;;;;3.31;60.12;101022.59;5006618;27;97370;-90
2023/02/16 06:46:54;;;;;;;86.87;48.33;;;;;;;3.28;59.79;101015.63;5015366;27;96861;-89
2023/02/16 06:49:20;;;;;;;87.80;48.57;;;;;;;3.41;59.83;101029.59;4999494;28;101239;-90
2023/02/16 06:51:47;;;;;;;90.97;49.17;;;;;;;3.38;60.05;101027.84;5004578;27;101514;-89
2023/02/16 06:54:13;;;;;;;91.13;50.20;;;;;;;3.33;60.18;101010.50;4999223;28;96999;-89
2023/02/16 06:56:39;;;;;;;91.17;47.20;;;;;;;3.43;60.13;101019.19;5026225;27;97178;-89
2023/02/16 06:59:06;;;;;;;95.17;51.00;;;;;;;3.53;60.10;101026.19;5023702;27;101327;-89
2023/02/16 07:01:32;;;;;;;92.50;49.80;;;;;;;3.52;60.11;101035.72;5034635;27;100627;-89
2023/02/16 07:03:58;;;;;;;93.73;48.30;;;;;;;3.38;60.25;101001.88;5018799;27;98945;-90
2023/02/16 07:06:25;;;;;;;92.13;50.27;;;;;;;3.38;60.16;101006.22;5017701;27;97046;-90
2023/02/16 07:08:51;;;;;;;98.40;51.20;;;;;;;3.58;60.29;101035.75;5001166;27;101604;-89
2023/02/16 07:11:18;;;;;;;91.27;48.53;;;;;;;3.40;60.40;100996.69;5033234;27;97855;-90
2023/02/16 07:13:44;;;;;;;93.43;50.97;;;;;;;3.61;60.41;101027.13;5002660;27;96932;-89
2023/02/16 07:16:10;;;;;;;92.63;49.53;;;;;;;3.49;60.21;100996.75;5016873;27;96933;-90
2023/02/16 07:18:36;;;;;;;90.30;49.63;;;;;;;3.47;60.52;100992.41;5000080;27;101664;-89
2023/02/16 07:21:01;;;;;;;93.40;49.63;;;;;;;3.54;60.57;100994.19;5017966;27;101720;-89
2023/02/16 07:23:27;;;;;;;92.17;48.47;;;;;;;3.86;60.43;101031.56;5005840;27;97551;-89
2023/02/16 07:25:53;;;;;;;89.20;47.73;;;;;;;3.77;60.46;101008.13;5023403;27;97250;-88
2023/02/16 07:28:18;;;;;;;90.27;48.87;;;;;;;4.07;60.12;101037.69;5000685;27;101136;-90
2023/02/16 07:30:44;;;;;;;91.37;49.13;;;;;;;4.11;60.42;101029.06;5003135;27;100981;-91
2023/02/16 07:33:10;;;;;;;88.53;48.00;;;;;;;4.25;60.51;101037.78;4999611;27;96705;-89
2023/02/16 07:35:36;;;;;;;93.20;47.67;;;;;;;4.37;60.58;101044.75;5023973;27;96686;-90
2023/02/16 07:38:03;;;;;;;88.97;49.17;;;;;;;4.41;60.38;101028.28;5019762;27;98005;-88
2023/02/16 07:40:29;;;;;;;85.97;48.10;;;;;;;4.48;60.54;101018.75;5035045;27;97337;-88
2023/02/16 07:42:59;;;;;;;84.57;47.30;;;;;;;4.67;60.57;101032.69;5000542;27;97339;-90
2023/02/16 07:45:24;;;;;;;78.60;44.37;;;;;;;4.81;60.14;101028.38;5047911;27;96707;-89
2023/02/16 07:47:50;;;;;;;76.87;42.87;;;;;;;4.85;60.36;101004.06;5017666;27;97510;-90
2023/02/16 07:50:16;;;;;;;73.57;39.73;;;;;;;5.05;60.02;101008.41;5020289;27;100907;-90
2023/02/16 07:52:41;;;;;;;70.13;37.90;;;;;;;5.36;60.26;101023.16;5017379;27;97482;-89
2023/02/16 07:55:07;;;;;;;64.23;33.27;;;;;;;5.35;60.45;100981.47;5012931;27;97087;-86
2023/02/16 07:57:33;;;;;;;53.63;29.43;;;;;;;5.79;60.27;101020.44;4995393;27;101074;-85
2023/02/16 07:59:58;;;;;;;46.27;28.43;;;;;;;5.98;60.17;101016.03;5009505;27;100947;-86
2023/02/16 08:02:26;;;;;;;43.27;25.93;;;;;;;6.18;59.56;101015.97;5003638;27;96866;-87
2023/02/16 08:04:52;;;;;;;41.80;24.33;;;;;;;6.24;59.18;100983.78;4995616;28;97173;-85
2023/02/16 08:07:18;;;;;;;39.23;24.70;;;;;;;6.30;59.24;100974.16;5026022;27;101511;-85
2023/02/16 08:09:44;;;;;;;41.53;24.73;;;;;;;6.66;58.90;101006.13;5010291;27;101945;-85
2023/02/16 08:12:11;;;;;;;38.53;23.50;;;;;;;6.78;58.44;101015.59;5004341;27;97336;-85
2023/02/16 08:14:37;;;;;;;39.97;26.30;;;;;;;6.79;58.57;100997.31;4988668;27;96805;-84
2023/02/16 08:17:04;;;;;;;38.17;24.67;;;;;;;7.02;58.14;101007.56;5032090;27;101651;-84
2023/02/16 08:19:30;;;;;;;39.00;24.00;;;;;;;7.09;57.92;100997.94;5031033;27;97491;-88
2023/02/16 08:21:57;;;;;;;36.93;23.47;;;;;;;7.20;57.86;100992.63;4997957;27;97011;-86
2023/02/16 08:24:23;;;;;;;38.50;23.67;;;;;;;7.27;57.30;100968.16;4998977;27;97145;-83
2023/02/16 08:26:51;;;;;;;39.70;24.27;;;;;;;7.58;57.28;101002.66;4996760;27;101410;-83
2023/02/16 08:29:18;;;;;;;38.55;24.02;;;;;;;7.74;56.99;100999.88;4997265;27;101933;-81
2023/02/16 08:31:45;;;;;;;44.13;25.27;;;;;;;7.80;56.82;100984.16;5014904;27;97350;-81
2023/02/16 08:34:12;;;;;;;36.30;24.15;;;;;;;8.01;56.07;100999.56;4998437;27;97085;-82
2023/02/16 08:36:39;;;;;;;42.53;25.40;;;;;;;8.05;56.49;100988.16;5007821;27;101444;-79
2023/02/16 08:39:15;;;;;;;39.95;24.10;;;;;;;8.20;55.29;100987.09;4992589;27;101203;-83
2023/02/16 08:41:43;;;;;;;36.70;23.40;;;;;;;8.37;55.41;100995.56;4982966;27;97308;-80
2023/02/16 08:44:09;;;;;;;37.05;23.75;;;;;;;8.67;54.84;101001.28;5013041;27;97008;-80
2023/02/16 08:46:38;;;;;;;36.08;23.80;;;;;;;8.96;54.69;100992.09;4995674;27;101694;-82
2023/02/16 08:49:05;;;;;;;34.10;23.02;;;;;;;9.14;53.29;100994.41;4996674;27;101182;-80
2023/02/16 08:51:33;;;;;;;38.22;24.33;;;;;;;9.37;53.30;100987.91;4989959;27;97453;-82
2023/02/16 08:53:59;;;;;;;39.10;24.25;;;;;;;9.61;51.81;100976.09;5006148;28;97269;-82
2023/02/16 08:56:28;;;;;;;37.15;23.92;;;;;;;9.76;51.45;100975.78;5002199;27;101284;-85
2023/02/16 08:58:54;;;;;;;41.83;24.67;;;;;;;10.05;51.14;100996.16;4996044;27;99520;-84
2023/02/16 09:01:20;;;;;;;36.63;24.20;;;;;;;10.27;51.05;100996.59;5004747;27;97267;-82
2023/02/16 09:03:47;;;;;;;36.10;24.58;;;;;;;10.47;50.09;100990.91;5004042;27;97472;-82
2023/02/16 09:06:14;;;;;;;36.65;25.77;;;;;;;10.99;48.47;100996.66;4983796;28;101425;-81
2023/02/16 09:08:40;;;;;;;37.17;25.23;;;;;;;10.96;48.74;100992.31;4998564;27;98087;-82
2023/02/16 09:11:15;;;;;;;34.20;24.20;;;;;;;11.11;48.26;100983.19;4994363;27;96920;-81
2023/02/16 09:13:42;;;;;;;41.40;26.23;;;;;;;11.33;47.76;100979.09;4999635;27;97342;-81
2023/02/16 09:16:18;;;;;;;40.45;26.38;;;;;;;11.64;47.75;100991.44;5003407;28;102006;-81
2023/02/16 09:18:45;;;;;;;34.05;24.35;;;;;;;12.00;47.11;100996.56;4982484;27;101188;-81
2023/02/16 09:21:14;;;;;;;34.47;24.25;;;;;;;12.13;46.03;100987.41;5024988;27;97189;-82
2023/02/16 09:23:43;;;;;;;38.83;24.98;;;;;;;12.57;45.48;100989.59;4997287;27;97222;-82
2023/02/16 09:26:09;;;;;;;36.88;25.80;;;;;;;12.76;45.28;100987.22;5029495;27;97600;-82
2023/02/16 09:28:37;;;;;;;33.25;25.38;;;;;;;13.05;45.04;100980.97;5052044;27;100933;-82
2023/02/16 09:31:14;;;;;;;33.42;24.33;;;;;;;13.34;44.10;100967.69;5027343;27;97413;-82
2023/02/16 09:33:41;;;;;;;30.95;23.58;;;;;;;13.75;43.35;100982.94;5050160;27;96903;-81
2023/02/16 09:36:09;;;;;;;30.52;22.70;;;;;;;13.82;42.86;100966.84;5053523;27;97714;-82
2023/02/16 09:38:35;;;;;;;38.03;24.27;;;;;;;14.23;41.78;100939.78;5058644;27;98085;-82
2023/02/16 09:41:14;;;;;;;30.80;22.00;;;;;;;14.42;40.42;100969.81;5029042;27;97250;-81
2023/02/16 09:43:48;;;;;;;33.53;23.70;;;;;;;14.41;41.37;100964.59;5045106;27;97481;-80
2023/02/16 09:46:17;;;;;;;32.60;23.15;;;;;;;14.67;40.90;100966.22;5031897;27;100935;-80
2023/02/16 09:48:45;;;;;;;29.73;23.00;;;;;;;14.99;40.17;100970.19;5024019;27;101565;-80
2023/02/16 09:51:47;;;;;;;29.98;21.60;;;;;;;15.16;39.20;100962.38;5043423;27;98049;-80
2023/02/16 09:54:33;;;;;;;28.77;22.02;;;;;;;15.37;39.83;100967.66;4970724;28;97494;-81
2023/02/16 09:57:12;;;;;;;31.17;22.33;;;;;;;15.51;38.58;100965.28;5026900;27;101131;-81
2023/02/16 09:59:54;;;;;;;27.55;19.95;;;;;;;15.48;38.32;100964.56;5036422;27;101243;-81
2023/02/16 10:02:38;;;;;;;31.85;20.85;;;;;;;15.64;38.27;100955.00;5042389;27;97293;-80
2023/02/16 10:05:12;;;;;;;28.67;20.42;;;;;;;15.90;38.15;100971.53;5045837;27;97254;-80
2023/02/16 10:07:56;;;;;;;30.42;21.73;;;;;;;16.20;37.71;100962.16;5043207;27;101630;-81
2023/02/16 10:10:26;;;;;;;25.08;20.27;;;;;;;16.17;37.76;100954.34;5050869;27;101624;-79
2023/02/16 10:12:56;;;;;;;31.58;21.13;;;;;;;16.04;37.71;100943.47;5067909;27;97493;-79
2023/02/16 10:15:25;;;;;;;26.23;19.87;;;;;;;16.08;38.66;100949.47;5066904;27;97206;-78
2023/02/16 10:18:16;;;;;;;28.38;20.58;;;;;;;16.05;40.00;100946.97;5048047;27;101618;-76
2023/02/16 10:20:44;;;;;;;24.55;19.35;;;;;;;16.06;39.78;100959.31;5050463;27;101140;-77
2023/02/16 10:23:31;;;;;;;28.65;21.27;;;;;;;15.88;38.67;100955.69;5067552;27;96765;-75
2023/02/16 10:26:04;;;;;;;26.25;20.40;;;;;;;15.68;40.45;100953.97;5027206;27;97399;-76
2023/02/16 10:28:45;;;;;;;29.13;20.83;;;;;;;15.55;39.53;100969.50;5055045;27;101808;-77
2023/02/16 10:31:26;;;;;;;28.15;21.17;;;;;;;15.37;39.59;100970.31;5032001;27;100960;-76
2023/02/16 10:34:18;;;;;;;26.02;19.27;;;;;;;15.26;40.14;100976.06;5018484;27;96903;-75
2023/02/16 10:37:08;;;;;;;29.98;21.50;;;;;;;15.27;38.39;100971.63;5048174;27;97259;-78
2023/02/16 10:40:04;;;;;;;31.52;22.02;;;;;;;14.69;40.15;100977.59;5040266;27;101574;-79
2023/02/16 10:42:59;;;;;;;28.15;20.58;;;;;;;14.46;40.52;100968.78;5047637;27;101459;-79
2023/02/16 10:45:48;;;;;;;29.25;21.45;;;;;;;14.19;41.56;100959.28;5040736;27;96978;-82
2023/02/16 10:48:13;;;;;;;29.85;21.00;;;;;;;14.09;41.27;100953.50;5034172;27;96819;-83
2023/02/16 10:50:48;;;;;;;31.52;23.08;;;;;;;13.92;41.67;100955.94;5044084;27;101572;-81
2023/02/16 10:53:17;;;;;;;30.30;22.42;;;;;;;13.90;41.98;100953.34;5066724;27;97516;-80
2023/02/16 10:55:43;;;;;;;28.50;22.25;;;;;;;13.75;42.28;100943.38;5049766;27;96784;-77
2023/02/16 10:58:37;;;;;;;29.00;21.92;;;;;;;13.81;41.42;100938.72;5035650;27;96988;-77
2023/02/16 11:01:13;;;;;;;36.90;23.25;;;;;;;13.86;41.49;100959.66;5057219;27;101584;-78
2023/02/16 11:03:45;;;;;;;28.35;21.60;;;;;;;13.67;42.23;100953.34;5048683;27;101382;-81
2023/02/16 11:06:16;;;;;;;32.65;22.38;;;;;;;13.50;42.63;100959.25;5035211;27;97489;-84
2023/02/16 11:08:50;;;;;;;30.33;22.30;;;;;;;13.39;42.35;100942.94;5020892;27;97444;-84
2023/02/16 11:11:16;;;;;;;30.33;20.88;;;;;;;13.32;42.54;100947.56;5034997;27;101907;-83
2023/02/16 11:13:46;;;;;;;28.10;20.77;;;;;;;13.15;43.31;100932.31;5046420;27;101853;-83
2023/02/16 11:16:19;;;;;;;30.13;21.25;;;;;;;13.05;43.42;100942.31;5049642;27;96878;-83
2023/02/16 11:18:49;;;;;;;26.83;19.35;;;;;;;13.00;43.40;100953.91;5064186;27;98036;-83
2023/02/16 11:21:15;;;;;;;29.13;19.85;;;;;;;12.88;43.50;100947.28;5043721;27;101648;-84
2023/02/16 11:23:42;;;;;;;28.85;20.85;;;;;;;12.88;43.50;100949.94;5050132;27;101448;-83
2023/02/16 11:26:11;;;;;;;33.63;19.92;;;;;;;12.82;42.98;100937.81;5044550;27;98327;-85
2023/02/16 11:28:48;;;;;;;30.02;20.17;;;;;;;12.63;43.63;100937.59;5052021;27;97327;-84
2023/02/16 11:31:22;;;;;;;30.52;19.52;;;;;;;12.67;44.44;100951.50;5049068;27;100053;-83
2023/02/16 11:34:34;;;;;;;30.58;20.52;;;;;;;12.59;44.51;100950.88;5048473;27;100731;-82
2023/02/16 11:37:24;;;;;;;28.38;20.73;;;;;;;12.40;44.70;100942.72;5044413;27;97349;-82
2023/02/16 11:40:23;;;;;;;28.35;19.75;;;;;;;12.34;45.21;100953.47;5019891;27;97696;-83
2023/02/16 11:42:52;;;;;;;27.38;18.67;;;;;;;12.21;45.09;100940.66;5039285;27;101602;-82
2023/02/16 11:45:31;;;;;;;29.30;19.58;;;;;;;12.16;45.23;100960.16;5065405;27;97944;-82
2023/02/16 11:48:01;;;;;;;27.60;20.17;;;;;;;12.14;46.01;100959.31;5049479;27;96910;-81
2023/02/16 11:50:30;;;;;;;30.73;20.20;;;;;;;12.12;45.95;100946.19;5036794;27;97287;-83
2023/02/16 11:53:08;;;;;;;30.25;21.05;;;;;;;12.09;45.61;100953.34;5062548;27;98066;-84
2023/02/16 11:55:34;;;;;;;29.27;20.05;;;;;;;12.02;46.31;100957.06;5066436;27;98001;-83
2023/02/16 11:58:29;;;;;;;25.83;19.27;;;;;;;11.89;46.30;100948.66;5036679;27;97356;-82
2023/02/16 12:01:09;;;;;;;28.33;20.33;;;;;;;11.84;46.36;100932.09;5018883;27;97400;-80
2023/02/16 12:03:52;;;;;;;29.83;20.25;;;;;;;11.82;45.91;100944.47;5051247;27;101535;-80
2023/02/16 12:06:39;;;;;;;33.08;21.25;;;;;;;11.79;46.26;100948.03;5047953;27;100252;-80
2023/02/16 12:09:29;;;;;;;34.50;22.38;;;;;;;11.67;46.13;100941.38;5046674;27;97801;-81
2023/02/16 12:12:18;;;;;;;32.33;21.40;;;;;;;11.61;46.50;100938.94;5040333;27;97611;-80
2023/02/16 12:14:53;;;;;;;32.40;22.77;;;;;;;11.51;46.95;100916.41;5060604;27;98063;-80